Details From LBSF - Sofia
To LBBG - Burgas
Flight Number -
Tags Routegen
Created
Modified
Stats Distance 219 nm / 406 km
Max Altitude 0 ft / 0 m
Waypoints 5
Social Downloads 6
Likes 0
Share VATSIM

Download

Looking for another format? Having issues loading an existing format? Contact us
Advertisement - Login to hide

Notes

None

Route

LBSF +42.71_+023.19 +42.85_+023.21 +42.25_+027.09 LBBG

ID Type Via Altitude Latitude Longitude Leg Dist Tot Dist Heading (true) Name
O LBSF APT - 0 ft / 0 m 42.69629˚ 23.38894˚ - 0 nm - -
+42.71_+023.19 DME - 0 ft / 0 m 42.70869˚ 23.19272˚ 8 nm 8 nm 275° / 275° -
+42.85_+023.21 DME - 0 ft / 0 m 42.85287˚ 23.20981˚ 8 nm 17 nm 5° / 5° -
+42.25_+027.09 DME - 0 ft / 0 m 42.24822˚ 27.09211˚ 175 nm 192 nm 101° / 103° -
O LBBG APT - 0 ft / 0 m 42.55983˚ 27.50160˚ 26 nm 219 nm 44° / 44° -

Altitude Profile

Advertisement - Login to hide

Weather


0- 5 10 15 20 25 30 35+ Temperature / ° C

Clouds and Precipitation
Forecast for 2017-12-11 06:00 UTC. Updated an hour ago

Ground ~20,000 ft ~40,000 ft Winds

LBSF

Details ICAO LBSF (SOF)
Name Sofia
Region Bulgaria
Timezone Europe/Sofia (UTC+2.0)
Stats Elevation 1,741 ft / 531 m (AMSL)
Location 42.697130° 23.416722°
Runways 1
Magnetic Variation 4.933° E

METAR

LBSF 110400Z VRB01KT 8000 NSC M08/M08 Q1018 NOSIG

Decode

TAF

TAF LBSF 102300Z 1100/1124 VRB04KT 3000 BR NSC TEMPO 1100/1107 1200 BR SCT004 PROB40 1102/1106 0400 FZFG BKN002 BECMG 1108/1110 13008KT 7000 NSC

Decode

Departure Runways

ID Width Length Bearing (true) Bearing (mag) Surface Threshold Offset Overrun Length
09 148 ft / 45 m 11,801 ft / 3,597 m 93.99° 89.06° Asphalt 984 ft / 300 m 525 ft / 160 m
27 148 ft / 45 m 11,801 ft / 3,597 m 274.02° 269.09° Asphalt 0 ft / 0 m 525 ft / 160 m

LBBG

Details ICAO LBBG (BOJ)
Name Burgas
Region Bulgaria
Timezone Europe/Sofia (UTC+2.0)
Stats Elevation 135 ft / 41 m (AMSL)
Location 42.570130° 27.515240°
Runways 1
Magnetic Variation 5.502° E

METAR

LBBG 110400Z 22006KT CAVOK M01/M05 Q1019 NOSIG

Decode

TAF

TAF LBBG 102300Z 1100/1124 VRB04KT CAVOK TEMPO 1102/1106 3000 BR BECMG 1110/1112 24012KT TEMPO 1112/1115 24012G24KT

Decode

Destination Runways

ID Width Length Bearing (true) Bearing (mag) Surface Threshold Offset Overrun Length
04 148 ft / 45 m 10,502 ft / 3,201 m 44.28° 38.78° Concrete 0 ft / 0 m 190 ft / 58 m
22 148 ft / 45 m 10,502 ft / 3,201 m 224.29° 218.79° Concrete 0 ft / 0 m 190 ft / 58 m

Approach Navaids

Runway Type Ident Frequency Range Bearing (true) Bearing (mag) Slope Elevation
22 Localiser IBG 110.30 MHz 18 nm / 33 km 224.26° 218.76° - 135 ft / 41 m (AMSL)
22 Glidescope IBG 110.30 MHz 10 nm / 19 km 224.28° 218.78° 3.00° 135 ft / 41 m (AMSL)

Popular Alternatives